Norman Ranch, South Dakota
Current Conditions -  °F | °C
As of 7:53 AM on Sunday 21 Dec 2014 (Local Time) from KPIR Reporting Station
Clear Clear  
Wind Chill: 14°   Ceiling: Unl
Heat Index: 24°   Visibility: 7mi
Dew Point: 22°   Wind: 10mph
Humidity: 91%   Direction: 120°ESE
Pressure: 29.61"   Gusts: NA
Location:  44.268°N, 100.627°W
Report Text: KPIR 211353Z AUTO 12009KT 7SM CLR M04/M06 A2961 RMK AO2 SLP051 I1000 T10441056
Loading
Personal Weather Stations






























Interactive Weather Map New forecast layout! Learn more

10-Day Weather Forecast

Advertisements
Track Severe Weather on mobile